Airport Name : Norman Wells

Other Name : Norman Wells

ICAO : CYVQ

IATA : YVQ

FAA :

Latitude : 65.281617

Longitude : -126.798219

Country : Canada

Local Date and Time : 20 May 2024 00:07

 

TAF (Terminal Aerodrome Forecast)

TAF CYVQ 200540Z 2006/2018 30010G20KT P6SM FEW020 SCT050 BKN080 TEMPO 2006/2008 P6SM -SHRA SCT020 BKN050 OVC080 FM200800 30006KT P6SM SCT020 BKN100 TEMPO 2008/2010 BKN020 OVC100 FM201000 30006KT P6SM SCT008 BKN030 TEMPO 2010/2018 BKN008 OVC030 PROB30 2010/2015 1/2SM FG OVC002 RMK NXT FCST BY 201200Z

 

METAR (METeorological Aerodrome Report)

CYVQ 200600Z 27013G19KT 25SM -SHRA FEW005 FEW018 FEW055 BKN074 BKN250 07/07 A2983 RMK ST1SC1SC1AC4CI1 ST TR CVCTV CLD EMBD SLP107

CYVQ 200551Z 25014KT 25SM -SHRA FEW005 FEW018 FEW055 BKN074 BKN250 08/07 A2983 RMK ST1SC1SC1AC4CI1 ST TR SLP106

CYVQ 200503Z 30011G17KT 25SM -RA FEW018 SCT055 BKN075 BKN250 08/06 A2983 RMK SC1SC3AC2CI1 SLP107

CYVQ 200500Z 29013KT 25SM VCSH FEW018 SCT055 BKN078 BKN250 08/06 A2983 RMK SC1SC3AC2CI1 SLP108

CYVQ 200400Z 25005KT 25SM FEW018 BKN057 BKN075 BKN250 10/06 A2984 RMK SC2SC3AC1CI1 SLP109

CYVQ 200300Z 27013KT 30SM FEW015 FEW036 SCT068 BKN110 BKN250 10/06 A2982 RMK SC1CU1AC2AC3CI1 SC TR SLP105